Time;durP1;ratioP1;P1;durP2;ratioP2;P2;SDS_P1;SDS_P2;PMS_P1;PMS_P2;Temp;Humidity;BMP_temperature;BMP_pressure;BME280_temperature;BME280_humidity;BME280_pressure;Samples;Min_cycle;Max_cycle;Signal;HPM_P1;HPM_P2
2022/12/11 00:00:40;;;;;;;48.80;15.57;;;-1.30;99.90;;;;;;5115556;27;20069;-78
2022/12/11 00:03:06;;;;;;;45.77;14.83;;;-1.30;99.90;;;;;;5114986;27;20039;-78
2022/12/11 00:05:32;;;;;;;48.57;15.70;;;-1.30;99.90;;;;;;5099582;27;20497;-78
2022/12/11 00:07:58;;;;;;;45.53;15.43;;;-1.20;99.90;;;;;;5115957;27;20130;-78
2022/12/11 00:10:24;;;;;;;40.80;15.53;;;-1.30;99.90;;;;;;5106540;27;20054;-78
2022/12/11 00:12:50;;;;;;;40.90;15.07;;;-1.30;99.90;;;;;;5096397;27;20079;-78
2022/12/11 00:15:15;;;;;;;42.73;14.67;;;-1.20;99.90;;;;;;5114257;27;20035;-78
2022/12/11 00:17:41;;;;;;;36.73;13.40;;;-1.20;99.90;;;;;;5101788;28;20058;-78
2022/12/11 00:20:07;;;;;;;41.43;13.47;;;-1.20;99.90;;;;;;5094574;28;20036;-78
2022/12/11 00:22:33;;;;;;;35.60;13.27;;;-1.20;99.90;;;;;;5095185;28;20074;-78
2022/12/11 00:24:59;;;;;;;39.17;14.57;;;-1.20;99.90;;;;;;5106450;27;20035;-77
2022/12/11 00:27:24;;;;;;;45.77;14.67;;;-1.20;99.90;;;;;;5100880;28;20050;-78
2022/12/11 00:29:50;;;;;;;43.40;14.63;;;-1.10;99.90;;;;;;5094762;28;20042;-77
2022/12/11 00:32:15;;;;;;;53.03;15.30;;;-1.10;99.90;;;;;;5094637;28;20077;-78
2022/12/11 00:34:41;;;;;;;41.40;14.47;;;-1.10;99.90;;;;;;5095059;28;20035;-78
2022/12/11 00:37:06;;;;;;;46.90;16.23;;;-1.10;99.90;;;;;;5095102;28;20039;-78
2022/12/11 00:39:32;;;;;;;41.60;14.27;;;-1.10;99.90;;;;;;5106579;27;20043;-78
2022/12/11 00:41:57;;;;;;;39.60;14.10;;;-1.10;99.90;;;;;;5103733;28;20046;-77
2022/12/11 00:44:23;;;;;;;48.27;15.07;;;-1.10;99.90;;;;;;5095738;27;20463;-78
2022/12/11 00:46:48;;;;;;;43.97;14.30;;;-1.00;99.90;;;;;;5109844;28;20047;-78
2022/12/11 00:49:14;;;;;;;42.10;15.20;;;-1.00;99.90;;;;;;5094725;28;20413;-78
2022/12/11 00:51:40;;;;;;;46.87;14.20;;;-1.00;99.90;;;;;;5110477;27;20507;-77
2022/12/11 00:54:05;;;;;;;45.80;15.33;;;-1.00;99.90;;;;;;5105917;27;20107;-78
2022/12/11 00:56:31;;;;;;;39.83;13.57;;;-1.00;99.90;;;;;;5090051;28;20453;-78
2022/12/11 00:58:56;;;;;;;34.63;13.77;;;-1.00;99.90;;;;;;5093910;28;20036;-78
2022/12/11 01:01:24;;;;;;;39.77;14.53;;;-1.00;99.90;;;;;;5104322;27;20126;-78
2022/12/11 01:03:50;;;;;;;43.10;13.87;;;-1.00;99.90;;;;;;5103702;28;20097;-77
2022/12/11 01:06:18;;;;;;;40.80;13.83;;;-1.00;99.90;;;;;;5077570;28;20046;-77
2022/12/11 01:08:44;;;;;;;41.50;13.97;;;-1.00;99.90;;;;;;5103938;27;20035;-78
2022/12/11 01:11:13;;;;;;;51.17;15.07;;;-0.90;99.90;;;;;;5108982;27;20495;-77
2022/12/11 01:13:40;;;;;;;41.93;14.73;;;-0.90;99.90;;;;;;5105257;28;20039;-77
2022/12/11 01:16:13;;;;;;;47.27;14.93;;;-0.90;99.90;;;;;;5094002;28;20036;-77
2022/12/11 01:18:38;;;;;;;40.83;14.88;;;-0.90;99.90;;;;;;5077026;28;20035;-77
2022/12/11 01:21:09;;;;;;;45.60;15.10;;;-0.90;99.90;;;;;;5100315;27;22134;-77
2022/12/11 01:23:35;;;;;;;50.33;15.87;;;-0.90;99.90;;;;;;5106921;27;20035;-77
2022/12/11 01:26:09;;;;;;;46.53;15.97;;;-0.90;99.90;;;;;;5101034;28;20035;-76
2022/12/11 01:28:35;;;;;;;42.83;14.57;;;-0.80;99.90;;;;;;5093727;28;20042;-77
2022/12/11 01:31:01;;;;;;;50.90;15.17;;;-0.90;99.90;;;;;;5107758;27;20130;-77
2022/12/11 01:33:26;;;;;;;54.73;16.10;;;-0.80;99.90;;;;;;5105838;28;20066;-77
2022/12/11 01:35:52;;;;;;;52.93;16.17;;;-0.90;99.90;;;;;;5105655;27;20031;-77
2022/12/11 01:38:17;;;;;;;47.37;15.27;;;-0.80;99.90;;;;;;5099214;27;20119;-77
2022/12/11 01:40:47;;;;;;;46.53;14.70;;;-0.80;99.90;;;;;;5106185;27;20039;-77
2022/12/11 01:43:13;;;;;;;49.33;16.13;;;-0.80;99.90;;;;;;5105810;28;20470;-77
2022/12/11 01:45:43;;;;;;;58.20;17.70;;;-0.80;99.90;;;;;;5092109;28;20096;-77
2022/12/11 01:48:14;;;;;;;58.53;17.73;;;-0.80;99.90;;;;;;5093937;27;20028;-77
2022/12/11 01:50:55;;;;;;;56.93;17.03;;;-0.80;99.90;;;;;;5096728;28;20157;-77
2022/12/11 01:53:32;;;;;;;51.33;15.57;;;-0.80;99.90;;;;;;5076913;28;20378;-77
2022/12/11 01:55:58;;;;;;;53.43;16.73;;;-0.80;99.90;;;;;;5076303;28;20036;-77
2022/12/11 01:58:28;;;;;;;52.37;16.57;;;-0.80;99.90;;;;;;5079225;28;20377;-77
2022/12/11 02:00:54;;;;;;;50.40;15.97;;;-0.70;99.90;;;;;;5104591;28;20569;-77
2022/12/11 02:03:20;;;;;;;54.23;17.50;;;-0.70;99.90;;;;;;5109430;28;20035;-77
2022/12/11 02:05:46;;;;;;;56.40;16.83;;;-0.70;99.90;;;;;;5106221;28;20092;-77
2022/12/11 02:08:11;;;;;;;52.90;17.13;;;-0.70;99.90;;;;;;5104490;28;20084;-77
2022/12/11 02:11:10;;;;;;;58.60;18.33;;;-0.70;99.90;;;;;;5089324;28;20034;-77
2022/12/11 02:13:54;;;;;;;53.17;15.53;;;-0.70;99.90;;;;;;5076667;28;20047;-77
2022/12/11 02:16:28;;;;;;;51.57;16.60;;;-0.70;99.90;;;;;;5093304;28;20036;-77
2022/12/11 02:19:10;;;;;;;50.07;16.33;;;-0.70;99.90;;;;;;5101536;28;20049;-77
2022/12/11 02:21:46;;;;;;;56.33;16.50;;;-0.70;99.90;;;;;;5104047;28;20035;-77
2022/12/11 02:24:41;;;;;;;50.20;15.77;;;-0.70;99.90;;;;;;5107120;28;20540;-77
2022/12/11 02:27:22;;;;;;;54.30;16.60;;;-0.70;99.90;;;;;;5093208;28;20040;-77
2022/12/11 02:29:49;;;;;;;52.77;14.90;;;-0.70;99.90;;;;;;5100642;28;20126;-77
2022/12/11 02:32:23;;;;;;;49.13;15.90;;;-0.60;99.90;;;;;;5105601;28;20031;-76
2022/12/11 02:35:19;;;;;;;50.22;15.80;;;-0.60;99.90;;;;;;5107222;28;20043;-77
2022/12/11 02:37:48;;;;;;;50.70;15.53;;;-0.60;99.90;;;;;;5066086;28;20110;-77
2022/12/11 02:40:18;;;;;;;49.77;15.33;;;-0.60;99.90;;;;;;5113644;28;20370;-76
2022/12/11 02:42:46;;;;;;;54.93;16.37;;;-0.60;99.90;;;;;;5098179;28;20034;-77
2022/12/11 02:45:13;;;;;;;53.77;16.43;;;-0.60;99.90;;;;;;5106239;28;20027;-76
2022/12/11 02:47:41;;;;;;;55.93;15.93;;;-0.60;99.90;;;;;;5096282;28;20412;-77
2022/12/11 02:50:12;;;;;;;51.60;16.60;;;-0.50;99.90;;;;;;5076446;28;20398;-77
2022/12/11 02:52:40;;;;;;;52.57;17.00;;;-0.60;99.90;;;;;;5097284;28;20029;-77
2022/12/11 02:55:07;;;;;;;52.93;15.70;;;-0.60;99.90;;;;;;5106458;28;20064;-77
2022/12/11 02:57:41;;;;;;;51.97;15.77;;;-0.50;99.90;;;;;;5109216;28;20118;-77
2022/12/11 03:00:08;;;;;;;51.45;16.25;;;-0.50;99.90;;;;;;5109869;28;20039;-76
2022/12/11 03:02:34;;;;;;;60.27;17.17;;;-0.50;99.90;;;;;;5108608;28;20089;-76
2022/12/11 03:05:00;;;;;;;57.37;16.07;;;-0.50;99.90;;;;;;5109050;28;20039;-77
2022/12/11 03:07:30;;;;;;;54.33;16.13;;;-0.50;99.90;;;;;;5102004;28;20040;-77
2022/12/11 03:09:56;;;;;;;62.97;16.57;;;-0.50;99.90;;;;;;5079377;28;20104;-77
2022/12/11 03:12:31;;;;;;;54.17;15.83;;;-0.50;99.90;;;;;;5102680;27;20516;-77
2022/12/11 03:15:00;;;;;;;50.60;15.47;;;-0.50;99.90;;;;;;5111303;27;20035;-76
2022/12/11 03:17:34;;;;;;;61.27;16.47;;;-0.50;99.90;;;;;;5116114;27;20076;-77
2022/12/11 03:20:35;;;;;;;49.13;14.63;;;-0.50;99.90;;;;;;5096616;28;20035;-77
2022/12/11 03:23:17;;;;;;;49.33;15.77;;;-0.50;99.90;;;;;;5074908;27;20416;-77
2022/12/11 03:25:45;;;;;;;51.17;15.57;;;-0.50;99.90;;;;;;5105120;28;20072;-77
2022/12/11 03:28:19;;;;;;;56.53;15.90;;;-0.50;99.90;;;;;;5110699;27;20035;-77
2022/12/11 03:30:48;;;;;;;52.73;14.33;;;-0.50;99.90;;;;;;5109064;27;20050;-77
2022/12/11 03:33:25;;;;;;;51.23;14.83;;;-0.50;99.90;;;;;;5111583;27;20114;-77
2022/12/11 03:35:55;;;;;;;50.30;13.83;;;-0.50;99.90;;;;;;5111461;27;20039;-77
2022/12/11 03:38:29;;;;;;;50.30;13.67;;;-0.50;99.90;;;;;;5116690;27;20446;-77
2022/12/11 03:40:59;;;;;;;47.17;14.67;;;-0.50;99.90;;;;;;5098721;27;20369;-77
2022/12/11 03:43:27;;;;;;;49.67;14.87;;;-0.50;99.90;;;;;;5109575;27;20089;-76
2022/12/11 03:45:53;;;;;;;47.63;15.50;;;-0.50;99.90;;;;;;5110804;27;20035;-77
2022/12/11 03:48:20;;;;;;;53.77;15.13;;;-0.40;99.90;;;;;;5113815;27;20046;-77
2022/12/11 03:50:47;;;;;;;55.20;15.20;;;-0.50;99.90;;;;;;5096166;28;20389;-77
2022/12/11 03:53:13;;;;;;;45.80;14.87;;;-0.40;99.90;;;;;;5095903;28;20039;-77
2022/12/11 03:55:40;;;;;;;47.43;15.30;;;-0.40;99.90;;;;;;5095858;28;20033;-77
2022/12/11 03:58:06;;;;;;;45.97;14.73;;;-0.40;99.90;;;;;;5099429;28;20044;-76
2022/12/11 04:00:32;;;;;;;52.40;14.97;;;-0.40;99.90;;;;;;5110099;27;20419;-77
2022/12/11 04:03:13;;;;;;;50.77;14.80;;;-0.40;99.90;;;;;;5114418;27;20047;-76
2022/12/11 04:05:44;;;;;;;53.90;14.43;;;-0.40;99.90;;;;;;5107356;28;20046;-77
2022/12/11 04:08:10;;;;;;;47.53;14.10;;;-0.50;99.90;;;;;;5095431;28;20398;-77
2022/12/11 04:10:36;;;;;;;46.60;14.10;;;-0.40;99.90;;;;;;5090908;27;20403;-76
2022/12/11 04:13:02;;;;;;;42.40;13.57;;;-0.40;99.90;;;;;;5101520;28;20036;-76
2022/12/11 04:15:27;;;;;;;44.40;14.30;;;-0.40;99.90;;;;;;5105506;27;20035;-76
2022/12/11 04:26:06;;;;;;;;;;;-0.40;99.90;;;;;;5095452;28;20055;-77
2022/12/11 04:28:31;;;;;;;51.40;13.97;;;-0.40;99.90;;;;;;5101904;27;19915;-77
2022/12/11 04:30:57;;;;;;;43.63;13.10;;;-0.40;99.90;;;;;;5094710;27;20377;-77
2022/12/11 04:33:22;;;;;;;48.37;13.87;;;-0.40;99.90;;;;;;5106248;27;20050;-76
2022/12/11 04:35:48;;;;;;;46.63;13.97;;;-0.30;99.90;;;;;;5109791;28;20063;-77
2022/12/11 04:38:14;;;;;;;44.50;13.90;;;-0.30;99.90;;;;;;5095069;28;20485;-77
2022/12/11 04:40:39;;;;;;;43.23;14.47;;;-0.30;99.90;;;;;;5094767;28;20126;-77
2022/12/11 04:43:05;;;;;;;43.03;14.00;;;-0.30;99.90;;;;;;5101347;27;20118;-76
2022/12/11 04:45:30;;;;;;;51.23;14.10;;;-0.30;99.90;;;;;;5115165;27;20038;-78
2022/12/11 04:47:56;;;;;;;46.97;15.07;;;-0.30;99.90;;;;;;5077626;28;20036;-77
2022/12/11 04:50:22;;;;;;;51.23;15.57;;;-0.30;99.90;;;;;;5076894;28;20096;-77
2022/12/11 04:52:47;;;;;;;51.90;14.77;;;-0.30;99.90;;;;;;5094613;28;20078;-76
2022/12/11 04:55:13;;;;;;;53.40;15.50;;;-0.30;99.90;;;;;;5094243;28;20035;-77
2022/12/11 04:57:39;;;;;;;50.67;14.43;;;-0.30;99.90;;;;;;5111426;27;20084;-78
2022/12/11 05:00:07;;;;;;;51.20;17.10;;;-0.30;99.90;;;;;;5114107;27;20031;-77
2022/12/11 05:02:34;;;;;;;47.27;14.17;;;-0.30;99.90;;;;;;5096824;27;20035;-77
2022/12/11 05:05:00;;;;;;;51.97;15.60;;;-0.30;99.90;;;;;;5114914;27;20535;-77
2022/12/11 05:07:27;;;;;;;48.53;15.10;;;-0.30;99.90;;;;;;5099622;27;20039;-77
2022/12/11 05:09:53;;;;;;;44.43;15.07;;;-0.30;99.90;;;;;;5106243;28;20385;-77
2022/12/11 05:12:18;;;;;;;43.10;14.73;;;-0.30;99.90;;;;;;5113235;27;20038;-78
2022/12/11 05:14:44;;;;;;;51.23;15.00;;;-0.30;99.90;;;;;;5108957;27;20038;-77
2022/12/11 05:17:09;;;;;;;50.30;14.70;;;-0.30;99.90;;;;;;5111834;27;20037;-77
2022/12/11 05:19:35;;;;;;;53.00;14.47;;;-0.30;99.90;;;;;;5106879;27;20096;-77
2022/12/11 05:22:00;;;;;;;50.67;15.23;;;-0.30;99.90;;;;;;5105927;28;20032;-77
2022/12/11 05:24:26;;;;;;;50.50;15.07;;;-0.30;99.90;;;;;;5113954;27;20031;-78
2022/12/11 05:26:51;;;;;;;49.37;14.50;;;-0.30;99.90;;;;;;5114332;27;20067;-78
2022/12/11 05:29:17;;;;;;;54.80;14.77;;;-0.30;99.90;;;;;;5103620;27;20126;-78
2022/12/11 05:31:42;;;;;;;43.87;13.53;;;-0.30;99.90;;;;;;5111863;27;20045;-77
2022/12/11 05:34:08;;;;;;;49.67;14.10;;;-0.30;99.90;;;;;;5103662;28;20538;-78
2022/12/11 05:36:33;;;;;;;50.23;15.57;;;-0.30;99.90;;;;;;5106452;27;20046;-78
2022/12/11 05:39:00;;;;;;;53.33;14.77;;;-0.30;99.90;;;;;;5097126;27;20175;-77
2022/12/11 05:41:28;;;;;;;43.83;15.63;;;-0.30;99.90;;;;;;5109187;27;20432;-77
2022/12/11 05:43:54;;;;;;;48.50;14.30;;;-0.30;99.90;;;;;;5107121;28;20074;-77
2022/12/11 05:46:25;;;;;;;51.43;15.53;;;-0.30;99.90;;;;;;5093827;28;20120;-77
2022/12/11 05:48:54;;;;;;;47.10;14.50;;;-0.30;99.90;;;;;;5079042;27;20114;-77
2022/12/11 05:51:21;;;;;;;50.57;14.00;;;-0.30;99.90;;;;;;5109086;27;20073;-77
2022/12/11 05:53:48;;;;;;;54.93;14.33;;;-0.20;99.90;;;;;;5108767;28;20488;-77
2022/12/11 05:56:20;;;;;;;48.40;14.90;;;-0.30;99.90;;;;;;5113795;28;20067;-77
2022/12/11 05:58:47;;;;;;;47.80;15.77;;;-0.20;99.90;;;;;;5106880;28;20040;-77
2022/12/11 06:01:19;;;;;;;53.03;15.20;;;-0.30;99.90;;;;;;5089359;28;20453;-78
2022/12/11 06:03:45;;;;;;;49.70;13.20;;;-0.20;99.90;;;;;;5104771;28;20039;-77
2022/12/11 06:06:11;;;;;;;45.10;14.30;;;-0.20;99.90;;;;;;5108557;28;20129;-78
2022/12/11 06:08:36;;;;;;;45.47;14.70;;;-0.20;99.90;;;;;;5114171;28;20031;-78
2022/12/11 06:11:03;;;;;;;46.37;14.23;;;-0.20;99.90;;;;;;5093866;28;20501;-78
2022/12/11 06:13:29;;;;;;;42.47;13.83;;;-0.20;99.90;;;;;;5077136;28;20097;-78
2022/12/11 06:15:58;;;;;;;46.07;13.73;;;-0.30;99.90;;;;;;5100148;28;20031;-77
2022/12/11 06:18:23;;;;;;;50.10;14.90;;;-0.20;99.90;;;;;;5088871;28;20036;-77
2022/12/11 06:20:49;;;;;;;47.97;14.13;;;-0.30;99.90;;;;;;5102573;28;20401;-78
2022/12/11 06:23:14;;;;;;;41.60;14.20;;;-0.20;99.90;;;;;;5094348;28;20039;-77
2022/12/11 06:25:40;;;;;;;51.63;15.10;;;-0.20;99.90;;;;;;5108527;28;20080;-78
2022/12/11 06:28:06;;;;;;;45.10;14.17;;;-0.20;99.90;;;;;;5105248;28;20036;-78
2022/12/11 06:30:31;;;;;;;49.83;14.37;;;-0.20;99.90;;;;;;5093944;28;20032;-78
2022/12/11 06:32:57;;;;;;;48.63;14.90;;;-0.20;99.90;;;;;;5109877;28;20445;-77
2022/12/11 06:35:23;;;;;;;45.70;14.37;;;-0.20;99.90;;;;;;5105258;28;20085;-78
2022/12/11 06:37:49;;;;;;;49.10;14.30;;;-0.20;99.90;;;;;;5109298;28;20493;-77
2022/12/11 06:40:14;;;;;;;41.33;15.50;;;-0.20;99.90;;;;;;5110486;28;20027;-77
2022/12/11 06:42:40;;;;;;;49.57;13.80;;;-0.20;99.90;;;;;;5102052;27;20743;-78
2022/12/11 06:45:06;;;;;;;48.93;15.40;;;-0.20;99.90;;;;;;5108668;27;20031;-77
2022/12/11 06:47:32;;;;;;;50.47;14.60;;;-0.20;99.90;;;;;;5115352;27;20039;-77
2022/12/11 06:49:58;;;;;;;46.13;14.77;;;-0.20;99.90;;;;;;5105723;28;20037;-78
2022/12/11 06:52:26;;;;;;;53.77;15.17;;;-0.20;99.90;;;;;;5096930;28;20473;-77
2022/12/11 06:54:52;;;;;;;46.97;13.80;;;-0.20;99.90;;;;;;5096944;28;20034;-77
2022/12/11 06:57:19;;;;;;;45.47;14.87;;;-0.20;99.90;;;;;;5104628;27;20050;-77
2022/12/11 06:59:45;;;;;;;47.70;13.97;;;-0.20;99.90;;;;;;5114895;27;20073;-77
2022/12/11 07:02:15;;;;;;;45.53;13.37;;;-0.20;99.90;;;;;;5097186;27;20040;-77
2022/12/11 07:04:41;;;;;;;49.50;14.23;;;-0.20;99.90;;;;;;5112498;27;20122;-77
2022/12/11 07:07:07;;;;;;;45.37;13.60;;;0.10;99.90;;;;;;5108193;27;20035;-77
2022/12/11 07:09:33;;;;;;;48.07;13.77;;;-0.20;99.90;;;;;;5091537;27;20039;-78
2022/12/11 07:11:59;;;;;;;43.73;14.23;;;-0.20;99.90;;;;;;5106090;27;20136;-78
2022/12/11 07:14:24;;;;;;;48.77;14.80;;;-0.20;99.90;;;;;;5107472;27;20042;-78
2022/12/11 07:16:50;;;;;;;43.43;14.33;;;-0.20;99.90;;;;;;5097271;27;20059;-77
2022/12/11 07:19:16;;;;;;;42.83;13.77;;;-0.20;99.90;;;;;;5114879;27;20066;-77
2022/12/11 07:21:41;;;;;;;42.23;13.90;;;-0.20;99.90;;;;;;5109617;27;20515;-77
2022/12/11 07:24:07;;;;;;;47.17;14.33;;;-0.20;99.90;;;;;;5116719;27;20496;-78
2022/12/11 07:26:33;;;;;;;45.87;15.63;;;-0.20;99.90;;;;;;5096170;28;20048;-78
2022/12/11 07:28:59;;;;;;;45.40;14.47;;;-0.20;99.90;;;;;;5095903;28;20027;-77
2022/12/11 07:31:28;;;;;;;52.37;16.17;;;-0.10;99.90;;;;;;5098625;27;20046;-77
2022/12/11 07:33:55;;;;;;;42.03;13.13;;;-0.10;99.90;;;;;;5094563;27;20092;-77
2022/12/11 07:36:22;;;;;;;46.43;14.73;;;-0.10;99.90;;;;;;5123221;27;20117;-77
2022/12/11 07:38:47;;;;;;;44.70;15.03;;;-0.20;99.90;;;;;;5130089;27;20043;-77
2022/12/11 07:41:14;;;;;;;43.40;13.67;;;-0.10;99.90;;;;;;5107835;27;20032;-77
2022/12/11 07:43:40;;;;;;;42.27;12.80;;;-0.10;99.90;;;;;;5111953;28;20032;-78
2022/12/11 07:46:12;;;;;;;48.27;14.77;;;-0.20;99.90;;;;;;5107682;27;20035;-77
2022/12/11 07:48:39;;;;;;;53.27;14.53;;;-0.10;99.90;;;;;;5109945;28;20076;-77
2022/12/11 07:51:08;;;;;;;47.13;14.07;;;-0.10;99.90;;;;;;5102820;27;20096;-77
2022/12/11 07:53:33;;;;;;;45.53;13.67;;;-0.10;99.90;;;;;;5102947;27;20100;-77
2022/12/11 07:55:59;;;;;;;44.93;13.73;;;-0.10;99.90;;;;;;5103788;28;20039;-76
2022/12/11 07:58:24;;;;;;;40.70;13.23;;;-0.10;99.90;;;;;;5106758;27;20067;-77
2022/12/11 08:00:50;;;;;;;48.30;14.17;;;-0.10;99.90;;;;;;5104280;27;20467;-77
2022/12/11 08:03:16;;;;;;;44.93;13.70;;;-0.10;99.90;;;;;;5104085;27;20046;-78
2022/12/11 08:05:48;;;;;;;45.43;14.57;;;-0.10;99.90;;;;;;5106664;28;20378;-78
2022/12/11 08:08:14;;;;;;;50.17;14.73;;;-0.10;99.90;;;;;;5085613;27;20035;-78
2022/12/11 08:10:40;;;;;;;46.37;14.87;;;-0.10;99.90;;;;;;5108218;27;20032;-77
2022/12/11 08:13:05;;;;;;;51.80;15.30;;;-0.10;99.90;;;;;;5094627;28;20028;-78
2022/12/11 08:15:30;;;;;;;52.40;15.37;;;-0.10;99.90;;;;;;5094132;28;20089;-78
2022/12/11 08:17:56;;;;;;;46.27;14.27;;;0.00;99.90;;;;;;5093384;28;20039;-78
2022/12/11 08:20:21;;;;;;;48.60;15.90;;;-0.10;99.90;;;;;;5100900;27;20408;-77
2022/12/11 08:22:47;;;;;;;55.83;14.90;;;-0.10;99.90;;;;;;5099465;27;20046;-78
2022/12/11 08:25:12;;;;;;;49.80;15.70;;;-0.10;99.90;;;;;;5107884;27;20042;-77
2022/12/11 08:27:38;;;;;;;56.23;16.07;;;-0.10;99.90;;;;;;5093526;28;20038;-78
2022/12/11 08:30:04;;;;;;;51.53;17.07;;;-0.10;99.90;;;;;;5120314;27;20152;-78
2022/12/11 08:32:30;;;;;;;47.67;14.87;;;-0.10;99.90;;;;;;5098170;28;20160;-76
2022/12/11 08:34:55;;;;;;;46.73;15.10;;;-0.10;99.90;;;;;;5095438;28;20093;-78
2022/12/11 08:37:21;;;;;;;49.47;15.63;;;-0.10;99.90;;;;;;5095367;28;20108;-77
2022/12/11 08:39:46;;;;;;;47.37;15.60;;;-0.10;99.90;;;;;;5095731;28;20496;-77
2022/12/11 08:42:12;;;;;;;61.50;17.40;;;0.00;99.90;;;;;;5120128;27;20077;-77
2022/12/11 08:44:38;;;;;;;54.93;17.27;;;-0.10;99.90;;;;;;5131080;27;20309;-78
2022/12/11 08:47:03;;;;;;;47.60;16.23;;;0.00;99.90;;;;;;5094934;28;20457;-77
2022/12/11 08:49:29;;;;;;;51.63;16.97;;;0.00;99.90;;;;;;5094768;28;20401;-78
2022/12/11 08:51:54;;;;;;;49.27;15.80;;;0.00;99.90;;;;;;5094210;28;20040;-78
2022/12/11 08:54:20;;;;;;;57.83;17.93;;;0.00;99.90;;;;;;5094427;28;20027;-78
2022/12/11 08:56:45;;;;;;;56.37;16.40;;;0.00;99.90;;;;;;5092507;27;20042;-77
2022/12/11 08:59:11;;;;;;;53.73;15.47;;;0.00;99.90;;;;;;5105350;27;20097;-77
2022/12/11 09:01:36;;;;;;;55.40;15.90;;;0.00;99.90;;;;;;5090925;27;20035;-77
2022/12/11 09:04:02;;;;;;;58.13;17.47;;;0.00;99.90;;;;;;5096726;28;20031;-78
2022/12/11 09:06:29;;;;;;;51.80;14.80;;;0.00;99.90;;;;;;5094599;28;20497;-77
2022/12/11 09:08:57;;;;;;;52.70;16.53;;;0.10;99.90;;;;;;5094230;28;20028;-78
2022/12/11 09:11:25;;;;;;;52.27;16.83;;;0.00;99.90;;;;;;5107483;27;20124;-77
2022/12/11 09:13:52;;;;;;;45.37;16.30;;;0.00;99.90;;;;;;5106354;27;20035;-77
2022/12/11 09:16:20;;;;;;;58.43;17.43;;;0.20;99.90;;;;;;5094091;28;20035;-76
2022/12/11 09:18:48;;;;;;;53.87;16.10;;;0.00;99.90;;;;;;5096904;27;20101;-77
2022/12/11 09:21:18;;;;;;;62.07;16.77;;;0.00;99.90;;;;;;5080672;27;20038;-77
2022/12/11 09:23:44;;;;;;;59.50;15.83;;;0.00;99.90;;;;;;5108278;27;20050;-77
2022/12/11 09:26:12;;;;;;;61.10;16.27;;;0.10;99.90;;;;;;5096473;28;20031;-78
2022/12/11 09:28:39;;;;;;;58.10;16.70;;;0.10;99.90;;;;;;5101966;27;20031;-76
2022/12/11 09:31:18;;;;;;;59.13;17.20;;;0.10;99.90;;;;;;5103548;27;20484;-77
2022/12/11 09:33:44;;;;;;;48.20;15.67;;;0.10;99.90;;;;;;5102266;27;20043;-77
2022/12/11 09:36:10;;;;;;;64.60;17.67;;;0.10;99.90;;;;;;5107869;27;20028;-76
2022/12/11 09:38:37;;;;;;;51.13;15.57;;;0.10;99.90;;;;;;5091471;27;20096;-76
2022/12/11 09:41:20;;;;;;;55.13;16.47;;;0.20;99.90;;;;;;5125319;27;20049;-76
2022/12/11 09:43:49;;;;;;;51.88;15.85;;;0.20;99.90;;;;;;5093468;28;20039;-76
2022/12/11 09:46:16;;;;;;;55.60;18.03;;;0.20;99.90;;;;;;5098350;28;20031;-76
2022/12/11 09:48:46;;;;;;;53.27;17.20;;;0.20;99.90;;;;;;5104982;28;20027;-77
2022/12/11 09:51:21;;;;;;;54.97;16.47;;;0.20;99.90;;;;;;5106796;27;20027;-76
2022/12/11 09:53:49;;;;;;;52.70;16.27;;;0.20;99.90;;;;;;5088046;28;20084;-76
2022/12/11 09:56:34;;;;;;;52.67;16.97;;;0.20;99.90;;;;;;5096926;28;20042;-77
2022/12/11 09:59:30;;;;;;;57.27;16.97;;;0.20;99.90;;;;;;5103887;27;20031;-77
2022/12/11 10:02:02;;;;;;;59.07;16.87;;;0.20;99.90;;;;;;5099477;28;20042;-76
2022/12/11 10:04:52;;;;;;;56.77;17.17;;;0.20;99.90;;;;;;5100223;27;20032;-77
2022/12/11 10:07:42;;;;;;;53.40;16.23;;;0.20;99.90;;;;;;5097004;28;20083;-77
2022/12/11 10:10:21;;;;;;;52.97;16.80;;;0.20;99.90;;;;;;5104290;28;20122;-77
2022/12/11 10:13:20;;;;;;;57.43;16.67;;;0.20;99.90;;;;;;5106260;28;20392;-77
2022/12/11 10:16:04;;;;;;;50.40;16.10;;;0.20;99.90;;;;;;5098676;28;20078;-77
2022/12/11 10:18:31;;;;;;;56.35;16.95;;;0.30;99.90;;;;;;5102978;27;20515;-77
2022/12/11 10:21:01;;;;;;;57.23;17.03;;;0.30;99.90;;;;;;5101646;28;20031;-77
2022/12/11 10:23:34;;;;;;;55.53;17.20;;;0.30;99.90;;;;;;5106195;27;20516;-77
2022/12/11 10:26:06;;;;;;;47.88;16.00;;;0.30;99.90;;;;;;5107184;28;20036;-76
2022/12/11 10:28:31;;;;;;;53.07;17.23;;;0.30;99.90;;;;;;5106371;27;20124;-77
2022/12/11 10:31:11;;;;;;;51.60;16.00;;;0.30;99.90;;;;;;5113413;27;20043;-77
2022/12/11 10:33:47;;;;;;;65.43;17.67;;;0.40;99.90;;;;;;5103607;28;20039;-77
2022/12/11 10:36:17;;;;;;;53.80;16.73;;;0.40;99.90;;;;;;5098401;27;20031;-76
2022/12/11 10:38:45;;;;;;;53.97;17.33;;;0.40;99.90;;;;;;5114217;27;20384;-77
2022/12/11 10:41:16;;;;;;;49.93;15.80;;;0.40;99.90;;;;;;5113332;27;20031;-77
2022/12/11 10:43:44;;;;;;;57.30;17.70;;;0.40;99.90;;;;;;5108336;27;20490;-76
2022/12/11 10:46:22;;;;;;;59.03;17.70;;;0.40;99.90;;;;;;5107170;27;20032;-77
2022/12/11 10:48:54;;;;;;;54.70;16.87;;;0.40;99.90;;;;;;5098527;28;20039;-77
2022/12/11 10:51:31;;;;;;;58.73;16.30;;;0.40;99.90;;;;;;5081992;27;20480;-76
2022/12/11 10:54:06;;;;;;;56.50;17.93;;;0.40;99.90;;;;;;5112262;27;20035;-76
2022/12/11 10:56:34;;;;;;;52.00;16.33;;;0.50;99.90;;;;;;5108693;28;20039;-77
2022/12/11 10:59:00;;;;;;;54.90;17.40;;;0.40;99.90;;;;;;5105471;27;20035;-77
2022/12/11 11:01:28;;;;;;;53.47;17.40;;;0.40;99.90;;;;;;5108708;27;20448;-77
2022/12/11 11:03:59;;;;;;;53.87;16.63;;;0.70;99.90;;;;;;5094748;27;20039;-76
2022/12/11 11:06:26;;;;;;;57.03;17.63;;;0.50;99.90;;;;;;5103253;27;20055;-76
2022/12/11 11:08:54;;;;;;;60.53;20.73;;;0.50;99.90;;;;;;5107827;27;20023;-76
2022/12/11 11:11:33;;;;;;;65.60;23.90;;;0.60;99.90;;;;;;5103891;27;20115;-76
2022/12/11 11:14:16;;;;;;;56.23;22.87;;;0.60;99.90;;;;;;5105460;27;20119;-75
2022/12/11 11:16:44;;;;;;;56.63;20.87;;;0.60;99.90;;;;;;5103311;27;20076;-76
2022/12/11 11:19:18;;;;;;;64.27;23.07;;;0.50;99.90;;;;;;5105575;27;20578;-76
2022/12/11 11:21:57;;;;;;;58.47;18.50;;;0.50;99.90;;;;;;5108613;27;20433;-76
2022/12/11 11:24:27;;;;;;;60.03;20.07;;;0.60;99.90;;;;;;5106050;28;20043;-76
2022/12/11 11:26:53;;;;;;;48.17;16.87;;;0.60;99.90;;;;;;5095148;28;20044;-76
2022/12/11 11:29:39;;;;;;;52.67;18.00;;;0.60;99.90;;;;;;5101570;27;20167;-77
2022/12/11 11:32:19;;;;;;;54.20;17.43;;;0.60;99.90;;;;;;5098740;28;20066;-77
2022/12/11 11:34:45;;;;;;;54.07;18.03;;;0.60;99.90;;;;;;5110513;27;20496;-77
2022/12/11 11:37:22;;;;;;;52.37;17.80;;;0.60;99.90;;;;;;5104078;28;20043;-77
2022/12/11 11:39:51;;;;;;;52.97;17.77;;;0.60;99.90;;;;;;5095471;28;20064;-76
2022/12/11 11:42:36;;;;;;;60.07;19.20;;;0.60;99.90;;;;;;5116586;27;20092;-77
2022/12/11 11:45:09;;;;;;;52.40;16.80;;;0.60;99.90;;;;;;5105122;27;20036;-76
2022/12/11 11:47:44;;;;;;;47.83;18.03;;;0.60;99.90;;;;;;5105980;27;20031;-76
2022/12/11 11:50:17;;;;;;;48.10;17.50;;;0.50;99.90;;;;;;5108202;27;20030;-75
2022/12/11 11:52:57;;;;;;;52.37;18.47;;;0.60;99.90;;;;;;5094552;28;20046;-76
2022/12/11 11:55:54;;;;;;;55.37;17.50;;;0.60;99.90;;;;;;5108032;27;20497;-76
2022/12/11 11:58:26;;;;;;;53.83;17.07;;;0.60;99.90;;;;;;5095137;27;20043;-76
2022/12/11 12:00:55;;;;;;;59.73;18.50;;;0.60;99.90;;;;;;5078547;27;20544;-76
2022/12/11 12:03:22;;;;;;;55.03;19.03;;;0.60;99.90;;;;;;5110980;27;20035;-76
2022/12/11 12:05:56;;;;;;;50.33;18.90;;;0.60;99.90;;;;;;5085197;28;20118;-76
2022/12/11 12:08:53;;;;;;;53.17;18.43;;;0.60;99.90;;;;;;5127966;27;20382;-75
2022/12/11 12:11:41;;;;;;;52.40;17.07;;;0.70;99.90;;;;;;5098908;28;20039;-75
2022/12/11 12:14:25;;;;;;;58.37;18.13;;;0.60;99.90;;;;;;5105359;27;20034;-76
2022/12/11 12:17:14;;;;;;;52.35;17.60;;;0.60;99.90;;;;;;5101400;28;20039;-76
2022/12/11 12:19:55;;;;;;;51.20;16.47;;;0.70;99.90;;;;;;5108198;27;20119;-75
2022/12/11 12:22:35;;;;;;;51.17;17.67;;;0.70;99.90;;;;;;5102661;27;20039;-76
2022/12/11 12:25:06;;;;;;;58.77;18.73;;;0.70;99.90;;;;;;5098323;27;20073;-75
2022/12/11 12:27:54;;;;;;;55.07;18.70;;;0.70;99.90;;;;;;5102855;27;20039;-75
2022/12/11 12:30:20;;;;;;;51.67;16.67;;;0.70;99.90;;;;;;5099342;27;20074;-75
2022/12/11 12:32:53;;;;;;;50.67;16.43;;;0.70;99.90;;;;;;5103072;27;20062;-75
2022/12/11 12:35:30;;;;;;;50.23;16.57;;;0.70;99.90;;;;;;5107141;27;20118;-75
2022/12/11 12:38:05;;;;;;;51.03;17.67;;;0.70;99.90;;;;;;5096591;27;20065;-76
2022/12/11 12:40:39;;;;;;;53.63;17.50;;;0.70;99.90;;;;;;5093547;28;20135;-76
2022/12/11 12:43:41;;;;;;;53.83;17.23;;;0.70;99.90;;;;;;5094141;28;20036;-76
2022/12/11 12:46:38;;;;;;;52.47;17.67;;;0.70;99.90;;;;;;5094147;28;20122;-76
2022/12/11 12:49:11;;;;;;;48.93;16.67;;;0.70;99.90;;;;;;5105838;27;20053;-75
2022/12/11 12:51:38;;;;;;;50.83;18.25;;;0.70;99.90;;;;;;5105509;27;20043;-76